Time;durP1;ratioP1;P1;durP2;ratioP2;P2;SDS_P1;SDS_P2;PMS_P1;PMS_P2;Temp;Humidity;BMP_temperature;BMP_pressure;BME280_temperature;BME280_humidity;BME280_pressure;Samples;Min_cycle;Max_cycle;Signal;HPM_P1;HPM_P2
2022/11/05 00:10:25;;;;;;;;;23.75;23.75;;;;;;;;5111365;27;11476;-78
2022/11/05 00:18:40;;;;;;;;;11.50;11.25;;;;;;;;5089769;28;11453;-78
2022/11/05 00:25:12;;;;;;;;;15.75;14.25;;;;;;;;5115856;27;11475;-77
2022/11/05 00:26:40;;;;;;;;;15.50;15.25;;;;;;;;5124290;27;11456;-77
2022/11/05 00:29:08;;;;;;;;;10.00;10.00;;;;;;;;5107094;27;11501;-77
2022/11/05 00:31:36;;;;;;;;;14.00;12.50;;;;;;;;5129827;27;11466;-77
2022/11/05 00:34:05;;;;;;;;;17.25;13.00;;;;;;;;5129994;27;11529;-77
2022/11/05 00:36:33;;;;;;;;;11.00;11.00;;;;;;;;5127025;27;11507;-78
2022/11/05 00:39:01;;;;;;;;;16.50;12.50;;;;;;;;5129201;27;11562;-77
2022/11/05 00:41:28;;;;;;;;;12.25;12.25;;;;;;;;5106739;27;11369;-78
2022/11/05 00:46:40;;;;;;;;;16.25;14.50;;;;;;;;5125658;27;11378;-77
2022/11/05 00:52:54;;;;;;;;;15.00;15.00;;;;;;;;5126658;27;12149;-77
2022/11/05 00:54:43;;;;;;;;;13.75;13.00;;;;;;;;5126493;27;11493;-77
2022/11/05 00:57:11;;;;;;;;;12.50;12.50;;;;;;;;5107092;27;11500;-78
2022/11/05 00:59:38;;;;;;;;;19.25;16.25;;;;;;;;5109312;27;11451;-78
2022/11/05 01:02:06;;;;;;;;;18.00;17.25;;;;;;;;5103041;27;11487;-78
2022/11/05 01:04:35;;;;;;;;;21.50;20.25;;;;;;;;5110537;27;11474;-78
2022/11/05 01:07:02;;;;;;;;;21.25;21.25;;;;;;;;5105957;27;11485;-78
2022/11/05 01:09:30;;;;;;;;;12.50;12.50;;;;;;;;5126247;27;11532;-78
2022/11/05 01:11:57;;;;;;;;;19.00;17.25;;;;;;;;5127957;27;11529;-77
2022/11/05 01:14:25;;;;;;;;;14.00;13.00;;;;;;;;5124878;27;11455;-78
2022/11/05 01:16:52;;;;;;;;;15.50;14.00;;;;;;;;5106946;27;11548;-77
2022/11/05 01:19:20;;;;;;;;;19.00;18.00;;;;;;;;5109430;27;11438;-78
2022/11/05 01:21:49;;;;;;;;;16.75;16.75;;;;;;;;5104938;27;11570;-78
2022/11/05 01:24:16;;;;;;;;;22.50;19.00;;;;;;;;5126878;27;11473;-78
2022/11/05 01:26:46;;;;;;;;;18.00;15.25;;;;;;;;5126895;27;11444;-78
2022/11/05 01:29:14;;;;;;;;;34.75;31.00;;;;;;;;5122236;27;11558;-77
2022/11/05 01:31:42;;;;;;;;;29.50;29.50;;;;;;;;5102554;27;11535;-78
2022/11/05 01:34:09;;;;;;;;;31.00;29.75;;;;;;;;5089660;27;11517;-78
2022/11/05 01:36:37;;;;;;;;;28.25;25.00;;;;;;;;5102575;27;11609;-78
2022/11/05 01:39:06;;;;;;;;;29.50;23.75;;;;;;;;5127317;27;11550;-78
2022/11/05 01:41:34;;;;;;;;;35.50;23.75;;;;;;;;5128004;27;11489;-78
2022/11/05 01:44:02;;;;;;;;;18.00;16.50;;;;;;;;5107166;27;12355;-78
2022/11/05 01:46:34;;;;;;;;;17.50;17.50;;;;;;;;5127094;27;12286;-78
2022/11/05 01:49:09;;;;;;;;;30.00;27.25;;;;;;;;5108348;27;11549;-78
2022/11/05 01:51:36;;;;;;;;;27.75;22.50;;;;;;;;5124567;27;11677;-78
2022/11/05 01:54:08;;;;;;;;;22.00;19.00;;;;;;;;5111838;27;12335;-78
2022/11/05 01:56:39;;;;;;;;;22.00;21.25;;;;;;;;5131434;27;11553;-78
2022/11/05 01:59:09;;;;;;;;;19.25;19.25;;;;;;;;5108287;27;11483;-78
2022/11/05 02:01:37;;;;;;;;;18.00;18.00;;;;;;;;5104745;27;11580;-78
2022/11/05 02:04:08;;;;;;;;;13.75;13.75;;;;;;;;5128401;27;11411;-78
2022/11/05 02:06:41;;;;;;;;;22.25;20.00;;;;;;;;5124359;27;11434;-77
2022/11/05 02:09:15;;;;;;;;;17.25;17.25;;;;;;;;5123842;27;11530;-77
2022/11/05 02:11:43;;;;;;;;;17.50;16.00;;;;;;;;5128081;27;11572;-78
2022/11/05 02:14:12;;;;;;;;;18.75;18.75;;;;;;;;5122118;27;11546;-78
2022/11/05 02:16:44;;;;;;;;;27.25;24.00;;;;;;;;5129099;27;11530;-77
2022/11/05 02:19:35;;;;;;;;;23.50;23.00;;;;;;;;5126622;27;12342;-78
2022/11/05 02:22:19;;;;;;;;;20.50;19.25;;;;;;;;5105981;27;11518;-80
2022/11/05 02:25:22;;;;;;;;;13.50;13.50;;;;;;;;5107019;27;11470;-78
2022/11/05 02:28:15;;;;;;;;;23.25;23.25;;;;;;;;5111432;27;11566;-77
2022/11/05 02:31:01;;;;;;;;;25.75;22.50;;;;;;;;5124767;27;11580;-78
2022/11/05 02:33:36;;;;;;;;;26.50;25.25;;;;;;;;5104328;27;11529;-77
2022/11/05 02:36:20;;;;;;;;;21.50;21.50;;;;;;;;5126112;27;11435;-78
2022/11/05 02:38:53;;;;;;;;;21.75;21.75;;;;;;;;5125080;27;11557;-78
2022/11/05 02:41:25;;;;;;;;;21.50;21.50;;;;;;;;5108122;27;11560;-78
2022/11/05 02:44:02;;;;;;;;;20.75;17.25;;;;;;;;5124317;27;11437;-78
2022/11/05 02:46:37;;;;;;;;;17.50;17.50;;;;;;;;5126246;27;11561;-78
2022/11/05 02:49:13;;;;;;;;;32.75;25.25;;;;;;;;5122795;27;11533;-78
2022/11/05 02:51:48;;;;;;;;;24.00;20.25;;;;;;;;5105475;27;11576;-77
2022/11/05 02:54:20;;;;;;;;;34.50;28.50;;;;;;;;5123988;27;11560;-78
2022/11/05 02:56:49;;;;;;;;;24.50;23.50;;;;;;;;5103071;27;11577;-78
2022/11/05 02:59:17;;;;;;;;;29.25;26.50;;;;;;;;5122992;27;11628;-78
2022/11/05 03:01:47;;;;;;;;;22.00;21.50;;;;;;;;5125713;27;11496;-78
2022/11/05 03:04:17;;;;;;;;;26.00;23.25;;;;;;;;5105760;27;11469;-78
2022/11/05 03:07:10;;;;;;;;;28.00;28.00;;;;;;;;5122016;27;11456;-78
2022/11/05 03:10:02;;;;;;;;;41.50;37.50;;;;;;;;5123620;27;11661;-78
2022/11/05 03:12:37;;;;;;;;;31.25;26.50;;;;;;;;5123692;27;11443;-79
2022/11/05 03:15:15;;;;;;;;;27.25;26.25;;;;;;;;5105671;27;11678;-77
2022/11/05 03:17:53;;;;;;;;;24.50;24.25;;;;;;;;5105767;27;11496;-78
2022/11/05 03:20:24;;;;;;;;;36.00;31.25;;;;;;;;5122710;27;11497;-77
2022/11/05 03:22:56;;;;;;;;;27.25;22.50;;;;;;;;5123723;27;11436;-78
2022/11/05 03:25:25;;;;;;;;;29.75;26.00;;;;;;;;5122203;27;11542;-78
2022/11/05 03:27:56;;;;;;;;;25.00;25.00;;;;;;;;5123966;27;11558;-78
2022/11/05 03:30:25;;;;;;;;;33.50;31.50;;;;;;;;5134870;27;11528;-78
2022/11/05 03:32:58;;;;;;;;;28.00;25.00;;;;;;;;5121250;27;11539;-77
2022/11/05 03:35:28;;;;;;;;;30.75;25.00;;;;;;;;5123631;27;11522;-78
2022/11/05 03:38:01;;;;;;;;;33.00;33.00;;;;;;;;5121300;27;11524;-78
2022/11/05 03:40:31;;;;;;;;;37.50;34.50;;;;;;;;5122496;27;11549;-78
2022/11/05 03:43:00;;;;;;;;;39.75;36.25;;;;;;;;5102161;27;11553;-78
2022/11/05 03:45:31;;;;;;;;;30.25;28.50;;;;;;;;5103304;27;11553;-78
2022/11/05 03:48:02;;;;;;;;;22.75;20.25;;;;;;;;5103333;27;11526;-78
2022/11/05 03:50:34;;;;;;;;;34.00;25.75;;;;;;;;5122354;27;11473;-77
2022/11/05 03:53:05;;;;;;;;;23.50;20.75;;;;;;;;5118386;27;11488;-78
2022/11/05 03:55:36;;;;;;;;;21.75;20.25;;;;;;;;5122682;27;11464;-78
2022/11/05 03:58:05;;;;;;;;;26.75;23.00;;;;;;;;5124464;27;11583;-78
2022/11/05 04:00:33;;;;;;;;;18.50;17.25;;;;;;;;5104554;27;12388;-78
2022/11/05 04:03:02;;;;;;;;;22.50;22.50;;;;;;;;5123475;27;11514;-77
2022/11/05 04:05:30;;;;;;;;;19.00;19.00;;;;;;;;5123077;27;11552;-78
2022/11/05 04:13:26;;;;;;;;;16.00;15.50;;;;;;;;5092807;27;11438;-78
2022/11/05 04:18:41;;;;;;;;;19.25;16.50;;;;;;;;5104464;27;12284;-78
2022/11/05 04:24:11;;;;;;;;;17.25;15.50;;;;;;;;5122078;27;11415;-78
2022/11/05 04:26:40;;;;;;;;;19.50;13.50;;;;;;;;5125666;27;11496;-77
2022/11/05 04:31:49;;;;;;;;;25.00;18.00;;;;;;;;5084858;27;11475;-77
2022/11/05 04:34:20;;;;;;;;;20.00;20.00;;;;;;;;5124140;27;11537;-77
2022/11/05 04:36:49;;;;;;;;;20.50;15.75;;;;;;;;5120876;27;11542;-78
2022/11/05 04:39:18;;;;;;;;;20.25;17.50;;;;;;;;5104337;27;11511;-79
2022/11/05 04:41:47;;;;;;;;;15.75;15.75;;;;;;;;5120976;27;11548;-78
2022/11/05 04:44:14;;;;;;;;;15.50;13.25;;;;;;;;5124740;27;11511;-78
2022/11/05 04:46:42;;;;;;;;;15.50;15.50;;;;;;;;5126596;27;11524;-78
2022/11/05 04:49:10;;;;;;;;;16.50;13.75;;;;;;;;5109097;27;11434;-78
2022/11/05 04:51:39;;;;;;;;;17.00;17.00;;;;;;;;5108419;27;11495;-78
2022/11/05 04:54:07;;;;;;;;;15.50;15.00;;;;;;;;5107716;27;12312;-77
2022/11/05 04:56:34;;;;;;;;;19.50;15.25;;;;;;;;5108819;27;12395;-78
2022/11/05 04:59:02;;;;;;;;;17.25;16.75;;;;;;;;5108715;27;11528;-78
2022/11/05 05:01:29;;;;;;;;;16.75;15.00;;;;;;;;5125369;27;11575;-78
2022/11/05 05:03:57;;;;;;;;;12.00;12.00;;;;;;;;5103678;27;11505;-78
2022/11/05 05:06:25;;;;;;;;;12.25;12.25;;;;;;;;5125379;27;11576;-78
2022/11/05 05:08:54;;;;;;;;;16.50;16.00;;;;;;;;5125807;27;12260;-78
2022/11/05 05:11:23;;;;;;;;;15.75;15.75;;;;;;;;5125863;27;11578;-78
2022/11/05 05:13:51;;;;;;;;;13.25;13.25;;;;;;;;5125399;27;12304;-78
2022/11/05 05:16:21;;;;;;;;;11.50;11.25;;;;;;;;5128055;27;11632;-78
2022/11/05 05:18:49;;;;;;;;;16.25;14.75;;;;;;;;5125387;27;11511;-77
2022/11/05 05:24:07;;;;;;;;;13.75;13.75;;;;;;;;5127460;27;11522;-78
2022/11/05 05:26:35;;;;;;;;;18.50;18.50;;;;;;;;5123343;27;11578;-77
2022/11/05 05:29:02;;;;;;;;;19.25;16.25;;;;;;;;5124736;27;11521;-78
2022/11/05 05:31:30;;;;;;;;;15.75;15.75;;;;;;;;5122936;27;11524;-78
2022/11/05 05:33:58;;;;;;;;;20.50;18.50;;;;;;;;5127582;27;11471;-77
2022/11/05 05:36:26;;;;;;;;;22.00;19.75;;;;;;;;5124851;27;11445;-77
2022/11/05 05:38:56;;;;;;;;;18.50;16.50;;;;;;;;5123663;27;12302;-78
2022/11/05 05:41:25;;;;;;;;;13.25;13.25;;;;;;;;5128098;27;11649;-79
2022/11/05 05:43:53;;;;;;;;;16.75;16.75;;;;;;;;5122548;27;11527;-78
2022/11/05 05:46:21;;;;;;;;;15.00;15.00;;;;;;;;5107537;27;12449;-79
2022/11/05 05:48:50;;;;;;;;;11.50;11.50;;;;;;;;5129121;27;11649;-78
2022/11/05 05:51:18;;;;;;;;;15.75;15.00;;;;;;;;5125140;27;12346;-77
2022/11/05 05:53:46;;;;;;;;;13.25;11.75;;;;;;;;5127396;27;11624;-77
2022/11/05 05:56:19;;;;;;;;;13.00;13.00;;;;;;;;5125651;27;11602;-77
2022/11/05 05:58:49;;;;;;;;;15.25;14.75;;;;;;;;5127969;27;11449;-79
2022/11/05 06:01:18;;;;;;;;;14.50;14.00;;;;;;;;5122375;27;11556;-78
2022/11/05 06:03:46;;;;;;;;;13.50;13.50;;;;;;;;5125654;27;11453;-78
2022/11/05 06:06:18;;;;;;;;;15.25;15.25;;;;;;;;5104659;27;11433;-78
2022/11/05 06:08:46;;;;;;;;;19.75;19.00;;;;;;;;5108434;27;11433;-78
2022/11/05 06:11:13;;;;;;;;;17.25;14.00;;;;;;;;5108985;27;11546;-79
2022/11/05 06:13:41;;;;;;;;;20.25;12.25;;;;;;;;5103659;27;11516;-78
2022/11/05 06:16:11;;;;;;;;;12.00;12.00;;;;;;;;5106530;27;11544;-77
2022/11/05 06:18:39;;;;;;;;;11.25;11.25;;;;;;;;5122192;27;11556;-77
2022/11/05 06:21:08;;;;;;;;;14.50;13.50;;;;;;;;5126356;27;11531;-78
2022/11/05 06:23:39;;;;;;;;;23.25;18.00;;;;;;;;5125622;27;11483;-77
2022/11/05 06:26:08;;;;;;;;;15.00;15.00;;;;;;;;5122261;27;11516;-78
2022/11/05 06:28:36;;;;;;;;;19.00;18.75;;;;;;;;5126279;27;11552;-78
2022/11/05 06:31:03;;;;;;;;;16.75;16.75;;;;;;;;5124379;27;11594;-78
2022/11/05 06:33:33;;;;;;;;;10.25;10.25;;;;;;;;5124393;27;11540;-78
2022/11/05 06:36:01;;;;;;;;;14.75;14.50;;;;;;;;5126798;27;11419;-77
2022/11/05 06:38:29;;;;;;;;;13.75;13.75;;;;;;;;5122141;27;11449;-79
2022/11/05 06:40:59;;;;;;;;;16.00;15.00;;;;;;;;5126128;27;11454;-79
2022/11/05 06:43:27;;;;;;;;;14.00;11.75;;;;;;;;5105269;27;11443;-79
2022/11/05 06:45:55;;;;;;;;;12.50;12.50;;;;;;;;5125971;27;11525;-79
2022/11/05 06:48:24;;;;;;;;;15.75;14.50;;;;;;;;5127743;27;11538;-78
2022/11/05 06:50:53;;;;;;;;;19.75;15.00;;;;;;;;5122631;27;11642;-78
2022/11/05 06:53:21;;;;;;;;;15.00;15.00;;;;;;;;5124914;27;11628;-80
2022/11/05 06:55:48;;;;;;;;;15.75;14.50;;;;;;;;5121939;27;10994;-72
2022/11/05 06:58:16;;;;;;;;;16.75;16.75;;;;;;;;5109096;27;11545;-71
2022/11/05 07:00:44;;;;;;;;;20.50;15.25;;;;;;;;5125788;27;11436;-74
2022/11/05 07:03:12;;;;;;;;;11.25;11.25;;;;;;;;5123557;27;11496;-74
2022/11/05 07:05:42;;;;;;;;;20.25;14.25;;;;;;;;5124897;27;11447;-73
2022/11/05 07:08:11;;;;;;;;;16.25;13.75;;;;;;;;5123367;27;11466;-74
2022/11/05 07:10:39;;;;;;;;;17.25;15.25;;;;;;;;5121106;27;11570;-74
2022/11/05 07:13:06;;;;;;;;;21.00;21.00;;;;;;;;5121241;27;11497;-74
2022/11/05 07:15:34;;;;;;;;;26.00;20.25;;;;;;;;5085184;27;11544;-73
2022/11/05 07:18:02;;;;;;;;;16.25;16.25;;;;;;;;5119684;27;11584;-73
2022/11/05 07:20:29;;;;;;;;;16.75;16.75;;;;;;;;5118856;27;11091;-74
2022/11/05 07:23:03;;;;;;;;;21.25;21.25;;;;;;;;5124550;27;11533;-72
2022/11/05 07:25:33;;;;;;;;;22.50;20.50;;;;;;;;5122731;27;11540;-72
2022/11/05 07:28:01;;;;;;;;;18.75;18.75;;;;;;;;5119201;27;11470;-72
2022/11/05 07:30:29;;;;;;;;;22.50;22.50;;;;;;;;5118598;27;11513;-71
2022/11/05 07:32:57;;;;;;;;;20.50;16.75;;;;;;;;5120896;27;11463;-71
2022/11/05 07:35:24;;;;;;;;;21.75;20.75;;;;;;;;5122451;27;12242;-73
2022/11/05 07:37:54;;;;;;;;;30.00;26.25;;;;;;;;5124420;27;12359;-72
2022/11/05 07:40:23;;;;;;;;;25.50;23.00;;;;;;;;5126316;27;12288;-73
2022/11/05 07:42:53;;;;;;;;;22.75;20.50;;;;;;;;5121854;27;11452;-73
2022/11/05 07:45:22;;;;;;;;;28.25;26.75;;;;;;;;5124359;27;11533;-73
2022/11/05 07:47:51;;;;;;;;;34.25;30.75;;;;;;;;5122693;27;11517;-73
2022/11/05 07:50:20;;;;;;;;;44.00;34.00;;;;;;;;5124576;27;11585;-73
2022/11/05 07:52:48;;;;;;;;;45.00;40.25;;;;;;;;5123973;27;11496;-72
2022/11/05 07:55:16;;;;;;;;;43.00;36.00;;;;;;;;5122052;27;11468;-73
2022/11/05 07:57:44;;;;;;;;;40.50;36.25;;;;;;;;5123829;27;12316;-73
2022/11/05 08:00:16;;;;;;;;;30.75;27.50;;;;;;;;5123503;27;12290;-72
2022/11/05 08:02:43;;;;;;;;;21.00;21.00;;;;;;;;5124030;27;11700;-74
2022/11/05 08:05:11;;;;;;;;;25.75;23.50;;;;;;;;5106136;27;11601;-74
2022/11/05 08:07:39;;;;;;;;;28.75;26.75;;;;;;;;5105592;27;11585;-74
2022/11/05 08:10:07;;;;;;;;;21.50;14.25;;;;;;;;5121204;27;11458;-74
2022/11/05 08:12:34;;;;;;;;;19.00;19.00;;;;;;;;5121719;27;11515;-74
2022/11/05 08:15:02;;;;;;;;;22.50;18.75;;;;;;;;5119314;27;11603;-74
2022/11/05 08:17:34;;;;;;;;;28.50;24.25;;;;;;;;5120921;27;11444;-75
2022/11/05 08:20:02;;;;;;;;;20.50;19.25;;;;;;;;5123621;27;11395;-74
2022/11/05 08:22:29;;;;;;;;;20.75;16.50;;;;;;;;5104708;27;11452;-73
2022/11/05 08:24:57;;;;;;;;;13.50;13.50;;;;;;;;5123847;27;11487;-74
2022/11/05 08:27:25;;;;;;;;;20.00;18.50;;;;;;;;5124829;27;11590;-75
2022/11/05 08:29:52;;;;;;;;;19.00;19.00;;;;;;;;5107255;27;11593;-76
2022/11/05 08:32:20;;;;;;;;;19.50;19.50;;;;;;;;5103461;27;11438;-78
2022/11/05 08:34:49;;;;;;;;;26.00;21.75;;;;;;;;5124747;27;11486;-75
2022/11/05 08:37:16;;;;;;;;;21.00;18.50;;;;;;;;5107260;27;11529;-75
2022/11/05 08:39:44;;;;;;;;;16.00;13.75;;;;;;;;5124150;27;12350;-77
2022/11/05 08:42:13;;;;;;;;;14.75;14.75;;;;;;;;5128584;27;11543;-75
2022/11/05 08:44:44;;;;;;;;;13.50;13.50;;;;;;;;5126347;27;11482;-74
2022/11/05 08:47:12;;;;;;;;;17.25;16.00;;;;;;;;5124712;27;12277;-74
2022/11/05 08:49:39;;;;;;;;;12.75;12.75;;;;;;;;5105691;27;11426;-73
2022/11/05 08:52:08;;;;;;;;;16.50;15.50;;;;;;;;5107087;27;11482;-74
2022/11/05 08:54:39;;;;;;;;;15.75;14.25;;;;;;;;5104307;27;11375;-78
2022/11/05 08:57:07;;;;;;;;;18.00;16.00;;;;;;;;5105932;27;11409;-77
2022/11/05 08:59:34;;;;;;;;;16.75;10.00;;;;;;;;5108784;27;11402;-77
2022/11/05 09:02:03;;;;;;;;;18.75;18.75;;;;;;;;5125405;27;11288;-77
2022/11/05 09:04:31;;;;;;;;;11.75;11.75;;;;;;;;5122288;27;11441;-77
2022/11/05 09:06:58;;;;;;;;;16.00;16.00;;;;;;;;5124680;27;11129;-77
2022/11/05 09:09:28;;;;;;;;;13.00;13.00;;;;;;;;5127489;27;11201;-74
2022/11/05 09:11:56;;;;;;;;;16.00;16.00;;;;;;;;5124206;27;11182;-76
2022/11/05 09:14:25;;;;;;;;;13.75;10.75;;;;;;;;5118688;27;11171;-77
2022/11/05 09:16:53;;;;;;;;;16.50;16.50;;;;;;;;5104421;27;11018;-78
2022/11/05 09:19:20;;;;;;;;;15.75;15.00;;;;;;;;5123738;27;11105;-76
2022/11/05 09:21:48;;;;;;;;;14.75;14.75;;;;;;;;5104164;27;11848;-76
2022/11/05 09:24:16;;;;;;;;;11.00;10.50;;;;;;;;5122095;27;11898;-75
2022/11/05 09:26:45;;;;;;;;;17.25;17.25;;;;;;;;5105761;27;11695;-74
2022/11/05 09:29:15;;;;;;;;;16.00;16.00;;;;;;;;5124014;27;11083;-77
2022/11/05 09:31:44;;;;;;;;;15.50;14.00;;;;;;;;5120754;27;10831;-78
2022/11/05 09:34:13;;;;;;;;;18.00;13.25;;;;;;;;5119909;27;10846;-76
2022/11/05 09:36:40;;;;;;;;;14.00;14.00;;;;;;;;5098548;27;10937;-77
2022/11/05 09:39:08;;;;;;;;;12.50;12.50;;;;;;;;5122578;27;10856;-74
2022/11/05 09:41:38;;;;;;;;;14.50;14.00;;;;;;;;5117885;27;10665;-74
2022/11/05 09:44:13;;;;;;;;;15.00;10.25;;;;;;;;5118411;27;11660;-73
2022/11/05 09:46:45;;;;;;;;;15.00;11.25;;;;;;;;5123438;27;10625;-73
2022/11/05 09:49:23;;;;;;;;;9.25;9.25;;;;;;;;5126773;27;10324;-72
2022/11/05 09:51:52;;;;;;;;;16.00;12.00;;;;;;;;5125394;27;10363;-74
2022/11/05 09:54:22;;;;;;;;;9.00;7.75;;;;;;;;5121516;27;10293;-73
2022/11/05 09:56:50;;;;;;;;;12.00;10.00;;;;;;;;5124094;27;10246;-72
2022/11/05 09:59:22;;;;;;;;;8.75;8.75;;;;;;;;5106463;27;10029;-74
2022/11/05 10:01:51;;;;;;;;;7.50;7.50;;;;;;;;5125052;27;10143;-73
2022/11/05 10:04:20;;;;;;;;;8.00;8.00;;;;;;;;5123626;27;9926;-73
2022/11/05 10:06:52;;;;;;;;;8.00;8.00;;;;;;;;5103572;27;9838;-74
2022/11/05 10:09:24;;;;;;;;;8.00;8.00;;;;;;;;5123625;27;9781;-74
2022/11/05 10:11:56;;;;;;;;;5.00;5.00;;;;;;;;5101471;27;10499;-75
2022/11/05 10:14:28;;;;;;;;;4.50;4.50;;;;;;;;5120811;27;11331;-73
2022/11/05 10:17:00;;;;;;;;;4.00;4.00;;;;;;;;5122558;27;9499;-72
2022/11/05 10:19:35;;;;;;;;;5.00;4.00;;;;;;;;5100890;27;10202;-73
2022/11/05 10:22:10;;;;;;;;;2.50;2.50;;;;;;;;5120257;27;9478;-73
2022/11/05 10:24:38;;;;;;;;;2.75;2.75;;;;;;;;5121971;27;9550;-73
2022/11/05 10:27:06;;;;;;;;;5.00;4.00;;;;;;;;5121516;27;9462;-71
2022/11/05 10:29:36;;;;;;;;;3.75;3.75;;;;;;;;5123481;27;9538;-74
2022/11/05 10:32:06;;;;;;;;;4.25;3.00;;;;;;;;5119649;27;9618;-73
2022/11/05 10:34:35;;;;;;;;;3.00;3.00;;;;;;;;5123208;27;9697;-73
2022/11/05 10:37:05;;;;;;;;;4.50;4.25;;;;;;;;5121525;27;9526;-73
2022/11/05 10:39:34;;;;;;;;;3.00;3.00;;;;;;;;5104550;27;9558;-73
2022/11/05 10:42:31;;;;;;;;;4.00;4.00;;;;;;;;5105106;27;9427;-74
2022/11/05 10:45:06;;;;;;;;;4.00;4.00;;;;;;;;5125264;27;9493;-74
2022/11/05 10:47:45;;;;;;;;;10.00;5.67;;;;;;;;5104671;27;9491;-73
2022/11/05 10:50:16;;;;;;;;;4.00;4.00;;;;;;;;5126789;27;9556;-74
2022/11/05 10:52:56;;;;;;;;;3.00;3.00;;;;;;;;5103799;27;9382;-74
2022/11/05 10:55:28;;;;;;;;;4.00;3.50;;;;;;;;5121983;27;9374;-74
2022/11/05 10:58:03;;;;;;;;;5.00;3.00;;;;;;;;5121885;27;9364;-73
2022/11/05 11:00:33;;;;;;;;;3.33;3.33;;;;;;;;5120712;27;9497;-75
2022/11/05 11:03:04;;;;;;;;;3.33;2.33;;;;;;;;5124846;27;9453;-74
2022/11/05 11:05:36;;;;;;;;;2.00;2.00;;;;;;;;5123069;27;10152;-74
2022/11/05 11:08:24;;;;;;;;;2.00;2.00;;;;;;;;5119004;27;9363;-72
2022/11/05 11:10:53;;;;;;;;;3.25;2.00;;;;;;;;5123710;27;9397;-74
2022/11/05 11:13:23;;;;;;;;;4.75;3.00;;;;;;;;5122736;27;9473;-71
2022/11/05 11:15:53;;;;;;;;;3.00;3.00;;;;;;;;5124258;27;9721;-74
2022/11/05 11:18:32;;;;;;;;;8.00;3.75;;;;;;;;5100977;27;9595;-74
2022/11/05 11:21:13;;;;;;;;;3.00;3.00;;;;;;;;5123214;27;9455;-74
2022/11/05 11:23:42;;;;;;;;;1.67;1.67;;;;;;;;5116692;27;9455;-74
2022/11/05 11:26:11;;;;;;;;;4.00;2.75;;;;;;;;5126897;27;9403;-74
2022/11/05 11:28:41;;;;;;;;;4.50;4.00;;;;;;;;5123923;27;10406;-74
2022/11/05 11:31:13;;;;;;;;;3.67;2.00;;;;;;;;5119693;27;9451;-73
2022/11/05 11:33:45;;;;;;;;;4.00;4.00;;;;;;;;5121805;27;9410;-73
2022/11/05 11:36:13;;;;;;;;;2.00;2.00;;;;;;;;5100975;27;10327;-74
2022/11/05 11:38:41;;;;;;;;;2.00;2.00;;;;;;;;5123010;27;9447;-73
2022/11/05 11:41:27;;;;;;;;;3.00;3.00;;;;;;;;5125192;27;9326;-73
2022/11/05 11:43:57;;;;;;;;;2.67;2.67;;;;;;;;5120011;27;9177;-74
2022/11/05 11:46:26;;;;;;;;;5.00;2.00;;;;;;;;5123977;27;9236;-74
2022/11/05 11:48:54;;;;;;;;;3.00;3.00;;;;;;;;5124774;27;9194;-74
2022/11/05 11:51:33;;;;;;;;;5.00;3.00;;;;;;;;5123923;27;9248;-74
2022/11/05 11:54:01;;;;;;;;;4.00;4.00;;;;;;;;5119643;27;9177;-72
2022/11/05 11:56:31;;;;;;;;;4.00;3.00;;;;;;;;5121628;27;9191;-72
2022/11/05 11:59:03;;;;;;;;;4.00;4.00;;;;;;;;5101998;27;9342;-72
2022/11/05 12:01:49;;;;;;;;;3.00;3.00;;;;;;;;5122939;27;9239;-73
2022/11/05 12:04:40;;;;;;;;;4.67;4.00;;;;;;;;5103050;27;9257;-73
2022/11/05 12:07:17;;;;;;;;;8.33;5.00;;;;;;;;5118014;27;9371;-73
2022/11/05 12:09:55;;;;;;;;;3.00;3.00;;;;;;;;5127067;27;9284;-73
2022/11/05 12:12:29;;;;;;;;;1.00;1.00;;;;;;;;5123036;27;9963;-75
2022/11/05 12:14:59;;;;;;;;;4.33;3.00;;;;;;;;5120877;27;9149;-74
2022/11/05 12:17:47;;;;;;;;;2.00;2.00;;;;;;;;5123708;27;9411;-73
2022/11/05 12:20:25;;;;;;;;;3.00;3.00;;;;;;;;5106484;27;9292;-72
2022/11/05 12:23:17;;;;;;;;;3.00;3.00;;;;;;;;5124975;27;9224;-73
2022/11/05 12:25:52;;;;;;;;;3.00;3.00;;;;;;;;5117784;27;9907;-73
2022/11/05 12:28:30;;;;;;;;;6.33;3.67;;;;;;;;5129629;27;9364;-74
2022/11/05 12:31:06;;;;;;;;;3.00;3.00;;;;;;;;5125846;27;9231;-73
2022/11/05 12:33:43;;;;;;;;;4.67;4.67;;;;;;;;5121497;27;9218;-74
2022/11/05 12:36:19;;;;;;;;;2.00;2.00;;;;;;;;5117949;27;9311;-71
2022/11/05 12:39:18;;;;;;;;;5.00;5.00;;;;;;;;5123986;27;9257;-73
2022/11/05 12:41:53;;;;;;;;;4.00;4.00;;;;;;;;5081257;27;9227;-70
2022/11/05 12:44:35;;;;;;;;;3.00;3.00;;;;;;;;5120194;27;9248;-73
2022/11/05 12:47:13;;;;;;;;;6.33;3.00;;;;;;;;5103695;27;9214;-72
2022/11/05 12:49:53;;;;;;;;;3.00;3.00;;;;;;;;5123825;27;9305;-72
2022/11/05 12:52:33;;;;;;;;;4.67;4.67;;;;;;;;5102402;27;9161;-72
2022/11/05 12:55:04;;;;;;;;;7.33;5.00;;;;;;;;5123169;27;9048;-73
2022/11/05 12:57:35;;;;;;;;;4.00;4.00;;;;;;;;5124309;27;9104;-73
2022/11/05 13:00:10;;;;;;;;;7.67;5.00;;;;;;;;5126254;27;9300;-73
2022/11/05 13:02:53;;;;;;;;;5.67;5.67;;;;;;;;5120864;27;9161;-73
2022/11/05 13:05:29;;;;;;;;;5.00;5.00;;;;;;;;5119544;27;9220;-73
2022/11/05 13:08:02;;;;;;;;;8.67;6.00;;;;;;;;5127978;27;9067;-73
2022/11/05 13:10:33;;;;;;;;;4.67;4.67;;;;;;;;5108254;27;9250;-73
2022/11/05 13:13:07;;;;;;;;;7.00;5.00;;;;;;;;5125391;27;9978;-73
2022/11/05 13:15:39;;;;;;;;;12.67;7.33;;;;;;;;5127369;27;9233;-73
2022/11/05 13:18:12;;;;;;;;;4.00;4.00;;;;;;;;5123541;27;9196;-73
2022/11/05 13:20:45;;;;;;;;;7.00;7.00;;;;;;;;5124158;27;9174;-73
2022/11/05 13:23:18;;;;;;;;;4.00;4.00;;;;;;;;5127549;27;9212;-73
2022/11/05 13:25:49;;;;;;;;;4.00;4.00;;;;;;;;5127653;27;9259;-73
2022/11/05 13:28:21;;;;;;;;;8.00;8.00;;;;;;;;5125587;27;9086;-74
2022/11/05 13:30:52;;;;;;;;;6.67;4.67;;;;;;;;5124301;27;9269;-74
2022/11/05 13:33:26;;;;;;;;;5.00;5.00;;;;;;;;5106642;27;9124;-74
2022/11/05 13:39:02;;;;;;;;;4.00;4.00;;;;;;;;5124042;27;9192;-72
2022/11/05 13:41:43;;;;;;;;;8.00;8.00;;;;;;;;5106880;27;9361;-72
2022/11/05 13:44:23;;;;;;;;;9.00;9.00;;;;;;;;5129690;27;9053;-71
2022/11/05 13:47:06;;;;;;;;;2.67;2.67;;;;;;;;5106509;27;9249;-72
2022/11/05 13:50:13;;;;;;;;;11.00;9.00;;;;;;;;5108246;27;10042;-73
2022/11/05 13:52:58;;;;;;;;;8.33;8.00;;;;;;;;5124631;27;9170;-71
2022/11/05 13:55:51;;;;;;;;;11.33;11.00;;;;;;;;5124768;27;9144;-72
2022/11/05 13:58:40;;;;;;;;;6.00;6.00;;;;;;;;5122405;27;9301;-73
2022/11/05 14:01:17;;;;;;;;;11.00;9.00;;;;;;;;5110249;27;9186;-72
2022/11/05 14:03:48;;;;;;;;;11.00;9.00;;;;;;;;5123560;27;9461;-72
2022/11/05 14:06:23;;;;;;;;;8.00;6.67;;;;;;;;5106527;27;9247;-72
2022/11/05 14:08:58;;;;;;;;;9.00;9.00;;;;;;;;5104048;27;9177;-72
2022/11/05 14:11:31;;;;;;;;;11.00;10.00;;;;;;;;5124971;27;9246;-72
2022/11/05 14:14:01;;;;;;;;;11.00;9.00;;;;;;;;5126719;27;9332;-72
2022/11/05 14:16:46;;;;;;;;;3.00;3.00;;;;;;;;5106635;27;9172;-72
2022/11/05 14:19:35;;;;;;;;;7.67;7.67;;;;;;;;5121641;27;9314;-72
2022/11/05 14:22:37;;;;;;;;;9.67;8.00;;;;;;;;5091195;27;9324;-72
2022/11/05 14:26:00;;;;;;;;;5.00;5.00;;;;;;;;5125711;27;9075;-73
2022/11/05 14:28:42;;;;;;;;;10.00;8.00;;;;;;;;5073652;27;9173;-73
2022/11/05 14:31:28;;;;;;;;;6.33;6.33;;;;;;;;5124777;27;9080;-73
2022/11/05 14:34:02;;;;;;;;;2.00;2.00;;;;;;;;5123756;27;9220;-72
2022/11/05 14:36:35;;;;;;;;;6.33;6.33;;;;;;;;5121982;27;8932;-73
2022/11/05 14:39:21;;;;;;;;;11.67;10.00;;;;;;;;5128128;27;9197;-73
2022/11/05 14:42:02;;;;;;;;;6.00;6.00;;;;;;;;5122966;27;9232;-74
2022/11/05 14:44:31;;;;;;;;;9.00;9.00;;;;;;;;5125030;27;9986;-73
2022/11/05 14:47:01;;;;;;;;;9.33;7.67;;;;;;;;5122377;27;9303;-73
2022/11/05 14:49:30;;;;;;;;;19.75;17.75;;;;;;;;5105168;27;9140;-72
2022/11/05 14:51:59;;;;;;;;;8.67;7.67;;;;;;;;5126343;27;9385;-73
2022/11/05 14:54:30;;;;;;;;;4.67;4.67;;;;;;;;5125067;27;9267;-73
2022/11/05 14:57:01;;;;;;;;;8.00;5.33;;;;;;;;5107798;27;9148;-73
2022/11/05 14:59:34;;;;;;;;;4.00;4.00;;;;;;;;5122193;27;9308;-73
2022/11/05 15:02:05;;;;;;;;;9.75;9.75;;;;;;;;5120633;27;9162;-73
2022/11/05 15:04:34;;;;;;;;;9.33;9.33;;;;;;;;5123686;27;9481;-73
2022/11/05 15:07:33;;;;;;;;;17.00;15.00;;;;;;;;5124127;27;9461;-73
2022/11/05 15:10:03;;;;;;;;;9.00;9.00;;;;;;;;5116034;27;9550;-72
2022/11/05 15:12:38;;;;;;;;;5.00;5.00;;;;;;;;5121385;27;10121;-73
2022/11/05 15:15:21;;;;;;;;;2.00;2.00;;;;;;;;5120831;27;9232;-73
2022/11/05 15:18:01;;;;;;;;;6.67;6.67;;;;;;;;5122829;27;8915;-73
2022/11/05 15:20:36;;;;;;;;;4.00;4.00;;;;;;;;5115202;27;9215;-73
2022/11/05 15:23:06;;;;;;;;;3.67;3.67;;;;;;;;5126457;27;9251;-72
2022/11/05 15:25:41;;;;;;;;;2.00;2.00;;;;;;;;5125197;27;10123;-73
2022/11/05 15:28:17;;;;;;;;;10.75;9.25;;;;;;;;5124410;27;9244;-72
2022/11/05 15:30:57;;;;;;;;;8.50;6.50;;;;;;;;5119944;27;9508;-73
2022/11/05 15:33:25;;;;;;;;;5.00;5.00;;;;;;;;5123336;27;9392;-73
2022/11/05 15:35:53;;;;;;;;;3.67;2.00;;;;;;;;5105063;27;9394;-72
2022/11/05 15:38:29;;;;;;;;;2.00;2.00;;;;;;;;5104172;27;9160;-72
2022/11/05 15:41:00;;;;;;;;;5.67;5.00;;;;;;;;5122629;27;9209;-73
2022/11/05 15:43:29;;;;;;;;;4.67;4.33;;;;;;;;5122769;27;9233;-73